NOZ85W LPMA-ENGM
Flight info
| Callsign | NOZ85W |
|---|---|
| Flight time | N/A |
| Altitude | 32000 |
| Route | DEGUN DCT ROLAR DCT VERAM/N0445F340 DCT ASMAR DCT DEMOS DCT SOSOV/N0442F350 DCT AMPOP DCT UNFIT DCT INFEC DCT KISWO DCT AVTIC DCT ANJAK/N0442F360 N38 NOKIN UP17 POL UP18 LEHOC/N0439F350 DCT ALOTI DCT UPLEV DCT OSKOM DCT RIPAM |
| Aircraft | B738/M-SDE2E3FGHIRWXY/LB1 |
Departure
| Time | 2026-05-06 07:38 |
|---|---|
| Airport | Cristiano Ronaldo International Airport (LPMA) |
Arrival
| Time | N/A |
|---|---|
| Airport | Oslo-Gardermoen International Airport (ENGM) |
| Time | Latitude | Longitude | Altitude | Speed | Heading |
|---|---|---|---|---|---|
| 2026-05-06 07:12 | 32.69333 | -16.77694 | 175 ft | 0 kts | 138° |
| 2026-05-06 07:27 | 32.69336 | -16.77697 | 175 ft | 2 kts | 138° |
| 2026-05-06 07:27 | 32.69350 | -16.77711 | 175 ft | 3 kts | 138° |
| 2026-05-06 07:28 | 32.69365 | -16.77727 | 175 ft | 3 kts | 145° |
| 2026-05-06 07:28 | 32.69380 | -16.77736 | 175 ft | 3 kts | 190° |
| 2026-05-06 07:28 | 32.69402 | -16.77717 | 175 ft | 3 kts | 226° |
| 2026-05-06 07:29 | 32.69407 | -16.77711 | 175 ft | 0 kts | 226° |
| 2026-05-06 07:32 | 32.69404 | -16.77714 | 175 ft | 2 kts | 226° |
| 2026-05-06 07:32 | 32.69378 | -16.77747 | 175 ft | 9 kts | 224° |
| 2026-05-06 07:32 | 32.69323 | -16.77814 | 175 ft | 12 kts | 226° |
| 2026-05-06 07:32 | 32.69289 | -16.77883 | 175 ft | 0 kts | 266° |
| 2026-05-06 07:35 | 32.69288 | -16.77890 | 175 ft | 3 kts | 267° |
| 2026-05-06 07:35 | 32.69287 | -16.77927 | 175 ft | 5 kts | 268° |
| 2026-05-06 07:35 | 32.69286 | -16.77981 | 175 ft | 9 kts | 266° |
| 2026-05-06 07:35 | 32.69247 | -16.78072 | 175 ft | 16 kts | 228° |
| 2026-05-06 07:36 | 32.69156 | -16.78194 | 175 ft | 24 kts | 229° |
| 2026-05-06 07:36 | 32.69019 | -16.78345 | 175 ft | 28 kts | 223° |
| 2026-05-06 07:36 | 32.68892 | -16.78423 | 182 ft | 14 kts | 239° |
| 2026-05-06 07:36 | 32.68936 | -16.78448 | 180 ft | 9 kts | 42° |
| 2026-05-06 07:37 | 32.68944 | -16.78438 | 188 ft | 0 kts | 44° |
| 2026-05-06 07:37 | 32.69038 | -16.78327 | 175 ft | 54 kts | 45° |
| 2026-05-06 07:37 | 32.69478 | -16.77807 | 176 ft | 122 kts | 45° |
| 2026-05-06 07:37 | 32.70219 | -16.76941 | 213 ft | 176 kts | 44° |
| 2026-05-06 07:38 | 32.71008 | -16.75819 | 939 ft | 178 kts | 51° |
| 2026-05-06 07:38 | 32.71599 | -16.74529 | 1802 ft | 181 kts | 72° |
| 2026-05-06 07:38 | 32.71593 | -16.72989 | 2288 ft | 200 kts | 100° |
| 2026-05-06 07:38 | 32.70981 | -16.71413 | 2578 ft | 220 kts | 115° |
| 2026-05-06 07:39 | 32.70193 | -16.69823 | 3177 ft | 222 kts | 116° |
| 2026-05-06 07:39 | 32.69432 | -16.68236 | 3856 ft | 222 kts | 111° |
| 2026-05-06 07:39 | 32.68837 | -16.66561 | 4395 ft | 227 kts | 109° |
| 2026-05-06 07:39 | 32.68197 | -16.64759 | 4636 ft | 244 kts | 109° |
| 2026-05-06 07:40 | 32.67542 | -16.62852 | 5068 ft | 252 kts | 107° |
| 2026-05-06 07:40 | 32.66872 | -16.60835 | 5290 ft | 274 kts | 108° |
| 2026-05-06 07:40 | 32.66162 | -16.58668 | 5797 ft | 285 kts | 109° |
| 2026-05-06 07:40 | 32.65571 | -16.56421 | 6493 ft | 288 kts | 94° |
| 2026-05-06 07:41 | 32.65821 | -16.54108 | 7086 ft | 288 kts | 65° |
| 2026-05-06 07:41 | 32.66914 | -16.52151 | 7775 ft | 284 kts | 43° |
| 2026-05-06 07:41 | 32.68271 | -16.50544 | 8475 ft | 285 kts | 42° |
| 2026-05-06 07:41 | 32.69720 | -16.48907 | 9146 ft | 289 kts | 40° |
| 2026-05-06 07:42 | 32.71215 | -16.47238 | 9822 ft | 293 kts | 39° |
| 2026-05-06 07:42 | 32.72689 | -16.45591 | 10413 ft | 298 kts | 41° |
| 2026-05-06 07:42 | 32.74250 | -16.43843 | 10597 ft | 319 kts | 40° |
| 2026-05-06 07:42 | 32.75916 | -16.41967 | 10764 ft | 339 kts | 42° |
| 2026-05-06 07:43 | 32.77671 | -16.39980 | 11019 ft | 355 kts | 41° |
| 2026-05-06 07:43 | 32.79477 | -16.37925 | 11558 ft | 360 kts | 40° |
| 2026-05-06 07:43 | 32.81290 | -16.35851 | 12214 ft | 362 kts | 42° |
| 2026-05-06 07:43 | 32.83116 | -16.33762 | 12790 ft | 367 kts | 40° |
| 2026-05-06 07:44 | 32.84948 | -16.31666 | 13371 ft | 371 kts | 41° |
| 2026-05-06 07:44 | 32.86823 | -16.29519 | 14022 ft | 373 kts | 41° |
| 2026-05-06 07:44 | 32.88701 | -16.27366 | 14556 ft | 377 kts | 41° |
| 2026-05-06 07:44 | 32.90606 | -16.25180 | 15071 ft | 382 kts | 41° |
| 2026-05-06 07:45 | 32.92502 | -16.23003 | 15612 ft | 385 kts | 41° |
| 2026-05-06 07:45 | 32.94440 | -16.20775 | 16168 ft | 388 kts | 41° |
| 2026-05-06 07:45 | 32.96393 | -16.18531 | 16690 ft | 391 kts | 41° |
| 2026-05-06 07:45 | 32.98369 | -16.16258 | 17204 ft | 395 kts | 41° |
| 2026-05-06 07:46 | 33.00333 | -16.13997 | 17728 ft | 398 kts | 41° |
| 2026-05-06 07:46 | 33.02334 | -16.11693 | 18252 ft | 402 kts | 41° |
| 2026-05-06 07:46 | 33.04354 | -16.09365 | 18721 ft | 405 kts | 41° |
| 2026-05-06 07:46 | 33.06394 | -16.07012 | 19205 ft | 407 kts | 41° |
| 2026-05-06 07:47 | 33.08410 | -16.04685 | 19686 ft | 409 kts | 41° |
| 2026-05-06 07:47 | 33.10466 | -16.02311 | 20153 ft | 411 kts | 41° |
| 2026-05-06 07:47 | 33.12522 | -15.99935 | 20628 ft | 413 kts | 41° |
| 2026-05-06 07:47 | 33.14597 | -15.97535 | 21044 ft | 416 kts | 41° |
| 2026-05-06 07:48 | 33.16692 | -15.95112 | 21459 ft | 419 kts | 41° |
| 2026-05-06 07:48 | 33.18791 | -15.92681 | 21933 ft | 421 kts | 41° |
| 2026-05-06 07:48 | 33.20869 | -15.90273 | 22399 ft | 422 kts | 41° |
| 2026-05-06 07:48 | 33.23006 | -15.87794 | 22836 ft | 424 kts | 41° |
| 2026-05-06 07:49 | 33.25107 | -15.85356 | 23238 ft | 427 kts | 41° |
| 2026-05-06 07:49 | 33.27248 | -15.82869 | 23648 ft | 429 kts | 41° |
| 2026-05-06 07:49 | 33.29394 | -15.80376 | 24001 ft | 431 kts | 41° |
| 2026-05-06 07:49 | 33.31554 | -15.77863 | 24378 ft | 432 kts | 41° |
| 2026-05-06 07:50 | 33.33716 | -15.75345 | 24764 ft | 433 kts | 41° |
| 2026-05-06 07:50 | 33.35848 | -15.72862 | 25117 ft | 434 kts | 41° |
| 2026-05-06 07:50 | 33.38027 | -15.70322 | 25465 ft | 435 kts | 41° |
| 2026-05-06 07:50 | 33.40201 | -15.67788 | 25804 ft | 436 kts | 41° |
| 2026-05-06 07:51 | 33.42458 | -15.65408 | 26102 ft | 434 kts | 30° |
| 2026-05-06 07:51 | 33.45132 | -15.63759 | 26423 ft | 431 kts | 21° |
| 2026-05-06 07:51 | 33.47889 | -15.62261 | 26609 ft | 436 kts | 21° |
| 2026-05-06 07:51 | 33.50659 | -15.60758 | 26972 ft | 436 kts | 21° |
| 2026-05-06 07:52 | 33.53419 | -15.59243 | 27370 ft | 435 kts | 21° |
| 2026-05-06 07:52 | 33.56138 | -15.57731 | 27685 ft | 436 kts | 22° |
| 2026-05-06 07:52 | 33.58903 | -15.56178 | 27955 ft | 438 kts | 22° |
| 2026-05-06 07:52 | 33.61671 | -15.54613 | 28227 ft | 440 kts | 22° |
| 2026-05-06 07:53 | 33.64446 | -15.53038 | 28574 ft | 439 kts | 22° |
| 2026-05-06 07:53 | 33.67166 | -15.51490 | 29038 ft | 436 kts | 22° |
| 2026-05-06 07:53 | 33.69897 | -15.49934 | 29548 ft | 432 kts | 22° |
| 2026-05-06 07:53 | 33.72615 | -15.48384 | 29986 ft | 430 kts | 22° |
| 2026-05-06 07:54 | 33.75324 | -15.46840 | 30338 ft | 429 kts | 22° |
| 2026-05-06 07:54 | 33.78013 | -15.45307 | 30738 ft | 425 kts | 22° |
| 2026-05-06 07:54 | 33.80654 | -15.43801 | 31070 ft | 424 kts | 22° |
| 2026-05-06 07:54 | 33.83325 | -15.42277 | 31288 ft | 425 kts | 22° |
| 2026-05-06 07:55 | 33.86001 | -15.40749 | 31506 ft | 426 kts | 22° |
| 2026-05-06 07:55 | 33.88678 | -15.39221 | 31726 ft | 426 kts | 22° |
| 2026-05-06 07:55 | 33.91363 | -15.37685 | 32001 ft | 425 kts | 22° |
| 2026-05-06 07:55 | 33.94042 | -15.36151 | 32128 ft | 428 kts | 22° |
| 2026-05-06 07:56 | 33.99416 | -15.33073 | 32129 ft | 429 kts | 22° |
| 2026-05-06 07:56 | 34.04776 | -15.29995 | 32125 ft | 423 kts | 22° |
| 2026-05-06 07:57 | 34.10059 | -15.26959 | 32137 ft | 422 kts | 22° |
| 2026-05-06 07:57 | 34.15367 | -15.23905 | 32126 ft | 421 kts | 22° |
| 2026-05-06 07:58 | 34.20671 | -15.20850 | 32136 ft | 421 kts | 22° |
| 2026-05-06 07:58 | 34.25934 | -15.17813 | 32131 ft | 421 kts | 22° |
| 2026-05-06 07:59 | 34.31243 | -15.14746 | 32146 ft | 422 kts | 22° |
| 2026-05-06 07:59 | 34.36534 | -15.11685 | 32144 ft | 423 kts | 22° |
| 2026-05-06 08:00 | 34.41835 | -15.08613 | 32145 ft | 425 kts | 22° |
| 2026-05-06 08:00 | 34.47177 | -15.05511 | 32140 ft | 426 kts | 22° |
| 2026-05-06 08:01 | 34.52539 | -15.02394 | 32139 ft | 427 kts | 22° |
| 2026-05-06 08:01 | 34.57909 | -14.99268 | 32140 ft | 428 kts | 22° |
| 2026-05-06 08:02 | 34.63252 | -14.96153 | 32135 ft | 428 kts | 22° |
| 2026-05-06 08:02 | 34.68626 | -14.93015 | 32147 ft | 428 kts | 22° |
| 2026-05-06 08:03 | 34.74017 | -14.89863 | 32130 ft | 428 kts | 22° |
| 2026-05-06 08:03 | 34.79352 | -14.86739 | 32129 ft | 427 kts | 22° |
| 2026-05-06 08:04 | 34.84710 | -14.83597 | 32145 ft | 426 kts | 22° |
| 2026-05-06 08:04 | 34.90014 | -14.80482 | 32134 ft | 425 kts | 22° |
| 2026-05-06 08:05 | 34.95351 | -14.77344 | 32132 ft | 424 kts | 22° |
| 2026-05-06 08:05 | 35.00668 | -14.74213 | 32133 ft | 423 kts | 22° |
| 2026-05-06 08:06 | 35.05936 | -14.71106 | 32129 ft | 423 kts | 22° |
| 2026-05-06 08:06 | 35.11244 | -14.67971 | 32132 ft | 423 kts | 22° |
| 2026-05-06 08:07 | 35.16539 | -14.64840 | 32133 ft | 423 kts | 22° |
| 2026-05-06 08:07 | 35.21829 | -14.61707 | 32134 ft | 423 kts | 22° |
| 2026-05-06 08:08 | 35.27111 | -14.58574 | 32136 ft | 424 kts | 22° |
| 2026-05-06 08:08 | 35.32443 | -14.55406 | 32135 ft | 425 kts | 22° |
| 2026-05-06 08:09 | 35.37729 | -14.52261 | 32135 ft | 425 kts | 22° |
| 2026-05-06 08:09 | 35.43069 | -14.49080 | 32134 ft | 425 kts | 22° |
| 2026-05-06 08:10 | 35.48403 | -14.45896 | 32133 ft | 426 kts | 23° |
| 2026-05-06 08:10 | 35.53699 | -14.42732 | 32138 ft | 426 kts | 23° |
| 2026-05-06 08:11 | 35.58151 | -14.40068 | 32130 ft | 426 kts | 23° |
| 2026-05-06 08:11 | 35.64350 | -14.36353 | 32145 ft | 426 kts | 23° |
| 2026-05-06 08:12 | 35.68819 | -14.33670 | 32132 ft | 426 kts | 23° |
| 2026-05-06 08:12 | 35.74118 | -14.30486 | 32130 ft | 426 kts | 23° |
| 2026-05-06 08:13 | 35.79463 | -14.27269 | 32135 ft | 426 kts | 23° |
| 2026-05-06 08:13 | 35.84802 | -14.24050 | 32135 ft | 426 kts | 23° |
| 2026-05-06 08:14 | 35.90100 | -14.20852 | 32162 ft | 426 kts | 23° |
| 2026-05-06 08:14 | 35.95442 | -14.17621 | 32139 ft | 426 kts | 23° |
| 2026-05-06 08:15 | 36.00775 | -14.14392 | 32131 ft | 426 kts | 23° |
| 2026-05-06 08:15 | 36.06080 | -14.11175 | 32132 ft | 426 kts | 23° |
| 2026-05-06 08:16 | 36.11399 | -14.07944 | 32135 ft | 425 kts | 23° |
| 2026-05-06 08:16 | 36.16713 | -14.04712 | 32144 ft | 425 kts | 23° |
| 2026-05-06 08:17 | 36.21990 | -14.01497 | 32135 ft | 425 kts | 23° |
| 2026-05-06 08:17 | 36.27295 | -13.98260 | 32134 ft | 425 kts | 23° |
| 2026-05-06 08:18 | 36.32601 | -13.95018 | 32133 ft | 424 kts | 23° |
| 2026-05-06 08:18 | 36.37888 | -13.91782 | 32130 ft | 424 kts | 23° |
| 2026-05-06 08:19 | 36.43161 | -13.88550 | 32143 ft | 425 kts | 23° |
| 2026-05-06 08:19 | 36.48478 | -13.85285 | 32152 ft | 425 kts | 23° |
| 2026-05-06 08:20 | 36.53797 | -13.82015 | 32135 ft | 426 kts | 23° |
| 2026-05-06 08:20 | 36.59075 | -13.78764 | 32128 ft | 426 kts | 23° |
| 2026-05-06 08:21 | 36.64395 | -13.75483 | 32128 ft | 426 kts | 23° |
| 2026-05-06 08:21 | 36.69708 | -13.72200 | 32134 ft | 425 kts | 23° |
| 2026-05-06 08:22 | 36.75000 | -13.68927 | 32129 ft | 425 kts | 23° |
| 2026-05-06 08:22 | 36.80222 | -13.65403 | 32134 ft | 427 kts | 27° |
| 2026-05-06 08:23 | 36.85252 | -13.61514 | 32126 ft | 428 kts | 28° |
| 2026-05-06 08:23 | 36.90309 | -13.57553 | 32127 ft | 427 kts | 28° |
| 2026-05-06 08:24 | 36.95363 | -13.53626 | 32142 ft | 427 kts | 28° |
| 2026-05-06 08:24 | 37.00410 | -13.49724 | 32132 ft | 427 kts | 28° |
| 2026-05-06 08:25 | 37.05476 | -13.45809 | 32126 ft | 428 kts | 28° |
| 2026-05-06 08:25 | 37.10519 | -13.41907 | 32122 ft | 428 kts | 28° |
| 2026-05-06 08:26 | 37.15586 | -13.37979 | 32124 ft | 427 kts | 28° |
| 2026-05-06 08:26 | 37.20617 | -13.34072 | 32144 ft | 427 kts | 28° |
| 2026-05-06 08:27 | 37.25678 | -13.30136 | 32119 ft | 428 kts | 28° |
| 2026-05-06 08:27 | 37.30746 | -13.26189 | 32122 ft | 428 kts | 28° |
| 2026-05-06 08:28 | 37.35779 | -13.22262 | 32125 ft | 428 kts | 28° |
| 2026-05-06 08:28 | 37.40834 | -13.18312 | 32126 ft | 427 kts | 28° |
| 2026-05-06 08:29 | 37.45896 | -13.14349 | 32132 ft | 427 kts | 28° |
| 2026-05-06 08:29 | 37.50932 | -13.10402 | 32128 ft | 428 kts | 28° |
| 2026-05-06 08:30 | 37.55995 | -13.06426 | 32127 ft | 428 kts | 28° |
| 2026-05-06 08:30 | 37.61028 | -13.02468 | 32120 ft | 428 kts | 28° |
| 2026-05-06 08:31 | 37.66088 | -12.98481 | 32119 ft | 428 kts | 28° |
| 2026-05-06 08:31 | 37.71147 | -12.94490 | 32120 ft | 428 kts | 28° |
| 2026-05-06 08:32 | 37.76177 | -12.90514 | 32117 ft | 428 kts | 28° |
| 2026-05-06 08:32 | 37.81226 | -12.86517 | 32118 ft | 428 kts | 28° |
| 2026-05-06 08:33 | 37.86277 | -12.82511 | 32119 ft | 428 kts | 28° |
| 2026-05-06 08:33 | 37.91334 | -12.78495 | 32119 ft | 428 kts | 28° |
| 2026-05-06 08:34 | 37.98886 | -12.72485 | 32125 ft | 429 kts | 28° |
| 2026-05-06 08:35 | 38.03946 | -12.68450 | 32115 ft | 429 kts | 28° |
| 2026-05-06 08:35 | 38.08987 | -12.64422 | 32116 ft | 430 kts | 28° |
| 2026-05-06 08:36 | 38.14058 | -12.60364 | 32114 ft | 430 kts | 28° |
| 2026-05-06 08:36 | 38.19122 | -12.56306 | 32119 ft | 430 kts | 28° |
| 2026-05-06 08:37 | 38.24162 | -12.52259 | 32116 ft | 431 kts | 28° |
| 2026-05-06 08:37 | 38.29237 | -12.48178 | 32120 ft | 431 kts | 28° |
| 2026-05-06 08:38 | 38.34308 | -12.44093 | 32106 ft | 431 kts | 28° |
| 2026-05-06 08:38 | 38.39349 | -12.40026 | 32124 ft | 431 kts | 28° |
| 2026-05-06 08:39 | 38.44428 | -12.35921 | 32116 ft | 432 kts | 28° |
| 2026-05-06 08:39 | 38.49511 | -12.31806 | 32121 ft | 433 kts | 28° |
| 2026-05-06 08:40 | 38.54578 | -12.27697 | 32119 ft | 433 kts | 28° |
| 2026-05-06 08:40 | 38.59685 | -12.23548 | 32114 ft | 434 kts | 28° |
| 2026-05-06 08:41 | 38.64764 | -12.19415 | 32114 ft | 435 kts | 28° |
| 2026-05-06 08:41 | 38.69880 | -12.15245 | 32109 ft | 435 kts | 28° |
| 2026-05-06 08:42 | 38.74965 | -12.11092 | 32118 ft | 435 kts | 28° |
| 2026-05-06 08:42 | 38.80092 | -12.06899 | 32112 ft | 436 kts | 28° |
| 2026-05-06 08:43 | 38.85177 | -12.02733 | 32110 ft | 436 kts | 29° |
| 2026-05-06 08:43 | 38.90300 | -11.98527 | 32114 ft | 437 kts | 29° |
| 2026-05-06 08:44 | 38.95433 | -11.94307 | 32109 ft | 437 kts | 29° |
| 2026-05-06 08:44 | 39.00530 | -11.90109 | 32115 ft | 438 kts | 29° |
| 2026-05-06 08:45 | 39.05690 | -11.85852 | 32108 ft | 439 kts | 29° |
| 2026-05-06 08:45 | 39.10819 | -11.81612 | 32106 ft | 440 kts | 29° |
| 2026-05-06 08:46 | 39.15968 | -11.77349 | 32105 ft | 440 kts | 29° |
| 2026-05-06 08:46 | 39.21141 | -11.73057 | 32101 ft | 441 kts | 29° |
| 2026-05-06 08:47 | 39.26271 | -11.68794 | 32109 ft | 441 kts | 29° |
| 2026-05-06 08:47 | 39.31456 | -11.64477 | 32104 ft | 442 kts | 29° |
| 2026-05-06 08:48 | 39.36627 | -11.60165 | 32102 ft | 442 kts | 29° |
| 2026-05-06 08:48 | 39.41768 | -11.55870 | 32101 ft | 442 kts | 29° |
| 2026-05-06 08:49 | 39.46944 | -11.51536 | 32112 ft | 442 kts | 29° |
| 2026-05-06 08:49 | 39.52115 | -11.47198 | 32104 ft | 443 kts | 30° |
| 2026-05-06 08:50 | 39.57301 | -11.42838 | 32101 ft | 443 kts | 30° |
| 2026-05-06 08:50 | 39.62440 | -11.38511 | 32101 ft | 443 kts | 30° |
| 2026-05-06 08:51 | 39.67619 | -11.34141 | 32103 ft | 443 kts | 30° |
| 2026-05-06 08:51 | 39.72804 | -11.29760 | 32108 ft | 444 kts | 30° |
| 2026-05-06 08:52 | 39.77966 | -11.25389 | 32107 ft | 444 kts | 30° |
| 2026-05-06 08:52 | 39.83129 | -11.21009 | 32102 ft | 445 kts | 30° |
| 2026-05-06 08:53 | 39.88317 | -11.16600 | 32098 ft | 446 kts | 30° |
| 2026-05-06 08:53 | 39.93527 | -11.12165 | 32104 ft | 446 kts | 30° |
| 2026-05-06 08:54 | 39.98697 | -11.07755 | 32106 ft | 447 kts | 30° |
| 2026-05-06 08:54 | 40.03914 | -11.03297 | 32101 ft | 447 kts | 30° |
| 2026-05-06 08:55 | 40.09124 | -10.98836 | 32100 ft | 447 kts | 31° |
| 2026-05-06 08:55 | 40.14297 | -10.94400 | 32099 ft | 447 kts | 31° |
| 2026-05-06 08:56 | 40.19520 | -10.89912 | 32098 ft | 447 kts | 31° |
| 2026-05-06 08:56 | 40.24702 | -10.85450 | 32085 ft | 448 kts | 31° |
| 2026-05-06 08:57 | 40.29912 | -10.80956 | 32101 ft | 447 kts | 31° |
| 2026-05-06 08:57 | 40.35080 | -10.76490 | 32094 ft | 447 kts | 31° |
| 2026-05-06 08:58 | 40.40276 | -10.71992 | 32084 ft | 447 kts | 31° |
| 2026-05-06 08:58 | 40.45450 | -10.67504 | 32084 ft | 447 kts | 31° |
| 2026-05-06 08:59 | 40.50660 | -10.62977 | 32088 ft | 447 kts | 31° |
| 2026-05-06 08:59 | 40.55864 | -10.58447 | 32087 ft | 447 kts | 31° |
| 2026-05-06 09:00 | 40.61027 | -10.53943 | 32086 ft | 447 kts | 31° |
| 2026-05-06 09:00 | 40.66220 | -10.49404 | 32104 ft | 447 kts | 31° |
| 2026-05-06 09:01 | 40.71379 | -10.44887 | 32094 ft | 447 kts | 31° |
| 2026-05-06 09:01 | 40.76562 | -10.40340 | 32084 ft | 448 kts | 31° |
| 2026-05-06 09:02 | 40.81727 | -10.35800 | 32084 ft | 447 kts | 32° |
| 2026-05-06 09:02 | 40.86914 | -10.31232 | 32084 ft | 447 kts | 32° |
| 2026-05-06 09:03 | 40.91231 | -10.27425 | 32087 ft | 448 kts | 32° |
| 2026-05-06 09:03 | 40.96406 | -10.22851 | 32081 ft | 448 kts | 32° |
| 2026-05-06 09:04 | 41.01589 | -10.18263 | 32084 ft | 448 kts | 32° |
| 2026-05-06 09:04 | 41.06775 | -10.13662 | 32081 ft | 448 kts | 32° |
| 2026-05-06 09:05 | 41.11926 | -10.09083 | 32083 ft | 447 kts | 32° |
| 2026-05-06 09:05 | 41.17098 | -10.04478 | 32081 ft | 447 kts | 32° |
| 2026-05-06 09:06 | 41.22247 | -9.99883 | 32079 ft | 447 kts | 32° |
| 2026-05-06 09:06 | 41.27433 | -9.95247 | 32076 ft | 447 kts | 32° |
| 2026-05-06 09:07 | 41.32598 | -9.90620 | 32073 ft | 447 kts | 32° |
| 2026-05-06 09:07 | 41.37729 | -9.86016 | 32087 ft | 447 kts | 32° |
| 2026-05-06 09:08 | 41.42890 | -9.81375 | 32080 ft | 447 kts | 32° |
| 2026-05-06 09:08 | 41.48048 | -9.76727 | 32070 ft | 446 kts | 32° |
| 2026-05-06 09:09 | 41.53162 | -9.72111 | 32076 ft | 445 kts | 32° |
| 2026-05-06 09:09 | 41.58293 | -9.67470 | 32081 ft | 444 kts | 32° |
| 2026-05-06 09:10 | 41.63410 | -9.62833 | 32071 ft | 444 kts | 32° |
| 2026-05-06 09:10 | 41.68521 | -9.58192 | 32070 ft | 443 kts | 32° |
| 2026-05-06 09:11 | 41.73589 | -9.53580 | 32068 ft | 443 kts | 32° |
| 2026-05-06 09:11 | 41.78687 | -9.48933 | 32069 ft | 442 kts | 32° |
| 2026-05-06 09:12 | 41.83759 | -9.44299 | 32084 ft | 442 kts | 32° |
| 2026-05-06 09:12 | 41.88844 | -9.39646 | 32070 ft | 442 kts | 32° |
| 2026-05-06 09:13 | 41.94098 | -9.35398 | 32061 ft | 437 kts | 19° |
| 2026-05-06 09:13 | 41.99809 | -9.32741 | 32067 ft | 435 kts | 16° |
| 2026-05-06 09:14 | 42.05571 | -9.30185 | 32078 ft | 435 kts | 16° |
| 2026-05-06 09:14 | 42.11274 | -9.27609 | 32068 ft | 435 kts | 17° |
| 2026-05-06 09:15 | 42.17006 | -9.24979 | 32076 ft | 435 kts | 17° |
| 2026-05-06 09:15 | 42.22738 | -9.22329 | 32068 ft | 435 kts | 17° |
| 2026-05-06 09:16 | 42.28435 | -9.19688 | 32071 ft | 435 kts | 17° |
| 2026-05-06 09:16 | 42.34169 | -9.17026 | 32064 ft | 435 kts | 17° |
| 2026-05-06 09:17 | 42.39893 | -9.14364 | 32068 ft | 434 kts | 17° |
| 2026-05-06 09:17 | 42.45582 | -9.11714 | 32062 ft | 434 kts | 17° |
| 2026-05-06 09:18 | 42.51311 | -9.09040 | 32065 ft | 434 kts | 17° |
| 2026-05-06 09:18 | 42.57000 | -9.06379 | 32064 ft | 434 kts | 17° |
| 2026-05-06 09:19 | 42.62723 | -9.03697 | 32070 ft | 433 kts | 17° |
| 2026-05-06 09:19 | 42.68425 | -9.01020 | 32073 ft | 433 kts | 17° |
| 2026-05-06 09:20 | 42.74093 | -8.98353 | 32051 ft | 433 kts | 17° |
| 2026-05-06 09:20 | 42.79797 | -8.95664 | 32071 ft | 432 kts | 17° |
| 2026-05-06 09:21 | 42.85471 | -8.92985 | 32058 ft | 431 kts | 17° |
| 2026-05-06 09:21 | 42.91119 | -8.90312 | 32063 ft | 431 kts | 17° |
| 2026-05-06 09:22 | 42.96774 | -8.87631 | 32070 ft | 430 kts | 17° |
| 2026-05-06 09:22 | 43.02428 | -8.84946 | 32075 ft | 430 kts | 17° |
| 2026-05-06 09:23 | 43.08078 | -8.82256 | 32070 ft | 429 kts | 17° |
| 2026-05-06 09:23 | 43.13694 | -8.79578 | 32076 ft | 429 kts | 17° |
| 2026-05-06 09:24 | 43.19334 | -8.76884 | 32072 ft | 429 kts | 17° |
| 2026-05-06 09:24 | 43.24973 | -8.74184 | 32077 ft | 429 kts | 17° |
| 2026-05-06 09:25 | 43.30623 | -8.71473 | 32098 ft | 429 kts | 17° |
| 2026-05-06 09:25 | 43.36233 | -8.68777 | 32079 ft | 429 kts | 17° |
| 2026-05-06 09:26 | 43.41884 | -8.66056 | 32077 ft | 429 kts | 17° |
| 2026-05-06 09:26 | 43.47536 | -8.63328 | 32077 ft | 429 kts | 17° |
| 2026-05-06 09:27 | 43.53140 | -8.60619 | 32082 ft | 429 kts | 17° |
| 2026-05-06 09:27 | 43.58777 | -8.57888 | 32079 ft | 428 kts | 17° |
| 2026-05-06 09:28 | 43.64374 | -8.55171 | 32080 ft | 428 kts | 17° |
| 2026-05-06 09:28 | 43.69998 | -8.52435 | 32079 ft | 428 kts | 17° |
| 2026-05-06 09:29 | 43.75624 | -8.49693 | 32082 ft | 428 kts | 17° |
| 2026-05-06 09:29 | 43.81251 | -8.46946 | 32076 ft | 428 kts | 17° |
| 2026-05-06 09:30 | 43.86846 | -8.44208 | 32081 ft | 428 kts | 17° |
| 2026-05-06 09:30 | 43.92466 | -8.41453 | 32085 ft | 428 kts | 17° |
| 2026-05-06 09:31 | 43.98069 | -8.38701 | 32078 ft | 428 kts | 17° |
| 2026-05-06 09:31 | 44.03698 | -8.35929 | 32079 ft | 428 kts | 17° |
| 2026-05-06 09:32 | 44.09328 | -8.33152 | 32079 ft | 428 kts | 18° |
| 2026-05-06 09:32 | 44.14923 | -8.30387 | 32078 ft | 429 kts | 18° |
| 2026-05-06 09:33 | 44.20560 | -8.27595 | 32072 ft | 429 kts | 18° |
| 2026-05-06 09:33 | 44.26183 | -8.24805 | 32073 ft | 428 kts | 18° |
| 2026-05-06 09:34 | 44.31810 | -8.22007 | 32073 ft | 428 kts | 18° |
| 2026-05-06 09:34 | 44.37395 | -8.19224 | 32071 ft | 428 kts | 18° |
| 2026-05-06 09:35 | 44.43015 | -8.16417 | 32071 ft | 428 kts | 18° |
| 2026-05-06 09:35 | 44.48627 | -8.13609 | 32071 ft | 428 kts | 18° |
| 2026-05-06 09:36 | 44.54209 | -8.10811 | 32072 ft | 428 kts | 18° |
| 2026-05-06 09:36 | 44.59833 | -8.07986 | 32074 ft | 428 kts | 18° |
| 2026-05-06 09:37 | 44.65417 | -8.05174 | 32070 ft | 428 kts | 18° |
| 2026-05-06 09:37 | 44.71019 | -8.02349 | 32072 ft | 428 kts | 18° |
| 2026-05-06 09:38 | 44.76638 | -7.99508 | 32069 ft | 428 kts | 18° |
| 2026-05-06 09:38 | 44.82220 | -7.96680 | 32068 ft | 428 kts | 18° |
| 2026-05-06 09:39 | 44.87844 | -7.93825 | 32071 ft | 428 kts | 18° |
| 2026-05-06 09:39 | 44.93420 | -7.90989 | 32072 ft | 428 kts | 18° |
| 2026-05-06 09:40 | 44.99050 | -7.88163 | 32065 ft | 428 kts | 15° |
| 2026-05-06 09:40 | 45.07665 | -7.85062 | 32070 ft | 427 kts | 12° |
| 2026-05-06 09:41 | 45.13475 | -7.83129 | 32071 ft | 427 kts | 12° |
| 2026-05-06 09:41 | 45.19270 | -7.81141 | 32066 ft | 428 kts | 12° |
| 2026-05-06 09:42 | 45.25017 | -7.79128 | 32072 ft | 428 kts | 12° |
| 2026-05-06 09:42 | 45.30793 | -7.77089 | 32071 ft | 428 kts | 12° |
| 2026-05-06 09:43 | 45.36583 | -7.75039 | 32072 ft | 428 kts | 13° |
| 2026-05-06 09:43 | 45.42335 | -7.72998 | 32067 ft | 427 kts | 13° |
| 2026-05-06 09:44 | 45.48103 | -7.70948 | 32068 ft | 427 kts | 13° |
| 2026-05-06 09:44 | 45.53872 | -7.68894 | 32068 ft | 427 kts | 13° |
| 2026-05-06 09:45 | 45.59637 | -7.66837 | 32068 ft | 426 kts | 13° |
| 2026-05-06 09:45 | 45.65369 | -7.64787 | 32064 ft | 426 kts | 13° |
| 2026-05-06 09:46 | 45.71134 | -7.62722 | 32065 ft | 426 kts | 13° |
| 2026-05-06 09:46 | 45.76897 | -7.60652 | 32066 ft | 426 kts | 13° |
| 2026-05-06 09:47 | 45.81687 | -7.58929 | 32069 ft | 426 kts | 13° |
| 2026-05-06 09:47 | 45.88382 | -7.56515 | 32064 ft | 427 kts | 13° |
| 2026-05-06 09:48 | 45.93177 | -7.54782 | 32074 ft | 426 kts | 13° |
| 2026-05-06 09:48 | 45.98953 | -7.52691 | 32067 ft | 427 kts | 13° |
| 2026-05-06 09:49 | 46.04720 | -7.50599 | 32061 ft | 427 kts | 13° |
| 2026-05-06 09:49 | 46.10449 | -7.48515 | 32064 ft | 426 kts | 13° |
| 2026-05-06 09:50 | 46.16204 | -7.46418 | 32067 ft | 426 kts | 13° |
| 2026-05-06 09:50 | 46.21969 | -7.44312 | 32063 ft | 426 kts | 13° |
| 2026-05-06 09:51 | 46.27720 | -7.42210 | 32058 ft | 426 kts | 13° |
| 2026-05-06 09:51 | 46.33438 | -7.40112 | 32062 ft | 425 kts | 13° |
| 2026-05-06 09:52 | 46.39184 | -7.37999 | 32052 ft | 425 kts | 12° |
| 2026-05-06 09:52 | 46.44894 | -7.35895 | 32062 ft | 425 kts | 12° |
| 2026-05-06 09:53 | 46.50634 | -7.33775 | 32060 ft | 425 kts | 12° |
| 2026-05-06 09:53 | 46.56372 | -7.31653 | 32059 ft | 424 kts | 12° |
| 2026-05-06 09:54 | 46.62062 | -7.29546 | 32064 ft | 424 kts | 13° |
| 2026-05-06 09:54 | 46.67809 | -7.27410 | 32059 ft | 425 kts | 13° |
| 2026-05-06 09:55 | 46.73513 | -7.25286 | 32053 ft | 425 kts | 13° |
| 2026-05-06 09:55 | 46.79265 | -7.23140 | 32053 ft | 425 kts | 13° |
| 2026-05-06 09:56 | 46.84976 | -7.21005 | 32053 ft | 426 kts | 13° |
| 2026-05-06 09:56 | 46.90718 | -7.18851 | 32054 ft | 426 kts | 13° |
| 2026-05-06 09:57 | 46.96466 | -7.16689 | 32059 ft | 426 kts | 13° |
| 2026-05-06 09:57 | 47.02173 | -7.14541 | 32053 ft | 426 kts | 13° |
| 2026-05-06 09:58 | 47.07927 | -7.12370 | 32049 ft | 425 kts | 13° |
| 2026-05-06 09:58 | 47.13662 | -7.10201 | 32052 ft | 425 kts | 13° |
| 2026-05-06 09:59 | 47.19369 | -7.08039 | 32053 ft | 424 kts | 13° |
| 2026-05-06 09:59 | 47.25100 | -7.05862 | 32048 ft | 424 kts | 13° |
| 2026-05-06 10:00 | 47.30775 | -7.03701 | 32048 ft | 424 kts | 13° |
| 2026-05-06 10:00 | 47.36495 | -7.01518 | 32053 ft | 424 kts | 13° |
| 2026-05-06 10:01 | 47.42216 | -6.99330 | 32055 ft | 424 kts | 13° |
| 2026-05-06 10:01 | 47.47907 | -6.97149 | 32048 ft | 424 kts | 13° |
| 2026-05-06 10:02 | 47.53635 | -6.94949 | 32047 ft | 424 kts | 13° |
| 2026-05-06 10:02 | 47.59357 | -6.92746 | 32050 ft | 424 kts | 13° |
| 2026-05-06 10:03 | 47.65047 | -6.90550 | 32048 ft | 424 kts | 13° |
| 2026-05-06 10:03 | 47.70777 | -6.88334 | 32048 ft | 424 kts | 13° |
| 2026-05-06 10:04 | 47.76459 | -6.86131 | 32048 ft | 424 kts | 13° |
| 2026-05-06 10:04 | 47.82182 | -6.83908 | 32052 ft | 424 kts | 13° |
| 2026-05-06 10:05 | 47.87901 | -6.81681 | 32045 ft | 424 kts | 13° |
| 2026-05-06 10:05 | 47.93579 | -6.79465 | 32039 ft | 424 kts | 13° |
| 2026-05-06 10:06 | 47.99288 | -6.77232 | 32046 ft | 423 kts | 13° |
| 2026-05-06 10:06 | 48.04967 | -6.75005 | 32045 ft | 423 kts | 13° |
| 2026-05-06 10:07 | 48.10670 | -6.72764 | 32040 ft | 423 kts | 13° |
| 2026-05-06 10:07 | 48.16367 | -6.70520 | 32043 ft | 423 kts | 13° |
| 2026-05-06 10:08 | 48.22045 | -6.68279 | 32036 ft | 423 kts | 13° |
| 2026-05-06 10:08 | 48.27742 | -6.66025 | 32037 ft | 423 kts | 13° |
| 2026-05-06 10:09 | 48.33456 | -6.63758 | 32042 ft | 423 kts | 13° |
| 2026-05-06 10:09 | 48.39124 | -6.61505 | 32041 ft | 423 kts | 13° |
| 2026-05-06 10:10 | 48.44841 | -6.59227 | 32041 ft | 424 kts | 13° |
| 2026-05-06 10:10 | 48.50519 | -6.56960 | 32033 ft | 424 kts | 13° |
| 2026-05-06 10:11 | 48.56232 | -6.54673 | 32036 ft | 424 kts | 13° |
| 2026-05-06 10:11 | 48.61920 | -6.52391 | 32042 ft | 424 kts | 13° |
| 2026-05-06 10:12 | 48.67634 | -6.50093 | 32044 ft | 424 kts | 13° |
| 2026-05-06 10:12 | 48.73354 | -6.47786 | 32036 ft | 424 kts | 13° |
| 2026-05-06 10:13 | 48.79053 | -6.45484 | 32032 ft | 423 kts | 13° |
| 2026-05-06 10:13 | 48.84718 | -6.43189 | 32031 ft | 423 kts | 13° |
| 2026-05-06 10:14 | 48.90417 | -6.40875 | 32039 ft | 422 kts | 13° |
| 2026-05-06 10:14 | 48.96072 | -6.38574 | 32035 ft | 422 kts | 13° |
| 2026-05-06 10:15 | 49.01770 | -6.36250 | 32034 ft | 423 kts | 13° |
| 2026-05-06 10:15 | 49.07453 | -6.33927 | 32034 ft | 423 kts | 13° |
| 2026-05-06 10:16 | 49.13101 | -6.31612 | 32035 ft | 423 kts | 13° |
| 2026-05-06 10:16 | 49.18808 | -6.29267 | 32035 ft | 424 kts | 13° |
| 2026-05-06 10:17 | 49.24518 | -6.26916 | 32038 ft | 425 kts | 13° |
| 2026-05-06 10:17 | 49.30218 | -6.24563 | 32037 ft | 426 kts | 13° |
| 2026-05-06 10:18 | 49.35955 | -6.22189 | 32050 ft | 426 kts | 13° |
| 2026-05-06 10:18 | 49.41699 | -6.19806 | 32038 ft | 427 kts | 13° |
| 2026-05-06 10:19 | 49.47403 | -6.17434 | 32035 ft | 426 kts | 13° |
| 2026-05-06 10:19 | 49.53110 | -6.14838 | 32025 ft | 428 kts | 21° |
| 2026-05-06 10:20 | 49.58298 | -6.10410 | 32026 ft | 429 kts | 30° |
| 2026-05-06 10:20 | 49.63389 | -6.05573 | 32027 ft | 429 kts | 30° |
| 2026-05-06 10:21 | 49.68458 | -6.00780 | 32032 ft | 429 kts | 29° |
| 2026-05-06 10:21 | 49.73577 | -5.95978 | 32025 ft | 430 kts | 29° |
| 2026-05-06 10:22 | 49.78697 | -5.91185 | 32024 ft | 430 kts | 29° |
| 2026-05-06 10:22 | 49.83809 | -5.86393 | 32035 ft | 431 kts | 29° |
| 2026-05-06 10:23 | 49.88949 | -5.81561 | 32024 ft | 431 kts | 29° |
| 2026-05-06 10:23 | 49.94051 | -5.76754 | 32021 ft | 432 kts | 29° |
| 2026-05-06 10:24 | 49.99185 | -5.71903 | 32021 ft | 432 kts | 30° |
| 2026-05-06 10:24 | 50.04310 | -5.67047 | 32021 ft | 432 kts | 30° |
| 2026-05-06 10:25 | 50.09458 | -5.62158 | 32004 ft | 432 kts | 29° |
| 2026-05-06 10:25 | 50.14571 | -5.57290 | 32005 ft | 432 kts | 29° |
| 2026-05-06 10:26 | 50.19708 | -5.52387 | 32002 ft | 432 kts | 29° |
| 2026-05-06 10:26 | 50.24850 | -5.47466 | 32002 ft | 432 kts | 30° |
| 2026-05-06 10:27 | 50.29946 | -5.42576 | 32012 ft | 432 kts | 30° |
| 2026-05-06 10:27 | 50.35081 | -5.37637 | 32015 ft | 432 kts | 30° |